Aérodrome :
LOGIN :

S'inscrire | Disclaimer

   EN    FR    IT 

 










Légende :    VFR   VFR Marginal   IFR   IFR Intensif   IFR Très Intensif
Visi : 
Plafond : 
>= 8 km
>= 3000ft
5 à 8 km
1000 à 3000 ft
1500m à 5 km
500 à 1000 ft
800 à 1500m
200 à 500 ft
< 800m
< 200 ft
Symboles :   Orages  Brouillard  Fortes neiges  Fortes précipitations  Vent > 20 kt
SIGMETs :   Divers  Orages  Givrage  Turbulence  Onde Orograph.  Cendres Volcan.







- Altitude de l'aérodrome : 137 ft


LIPS - Istrana AFB Treviso

DERNIER METAR :
  • 180355Z 05004KT 3000 -RA BR BKN025 05/04 Q1018 RMK BKN VIS MIN 3000 WIND THR26 05003KT WIND THR08 03004KT YLO

METARs EXPIRÉS :
  • 180255Z 04004KT 3000 BR BKN025 05/04 Q1018 RMK BKN VIS MIN 3000 WIND THR26 02003KT WIND THR08 36003KT YLO
  • 180155Z 00000KT 4000 BR BKN025 05/04 Q1019 RMK BKN VIS MIN 4000 WIND THR26 00000KT WIND THR08 00000KT GRN

TAF TAF LIPS
Valide du 18 à 03h jusqu'au 18 à 12h UTC


180200Z 1803/1812 06005KT 3000 BR SCT030 BKN040
TEMPO 1803/1807 3000 RA
Pas de NOTAMs connus pour ce terrain.



MET'MAP, la Météo Aéronautique d'un coup d'oeil ! - Copyright ORBIFLY Décembre 2007 - Disclaimer

ORBIFLY MET'MAP TEAM :

Programmation & Développement : Alexandra Zaïnal
Conception & Développement : Baudouin d'Aumeries
Co-Programmation & Développement : Marc-Olivier Méhu
Soutien technique & logistique : Manuel Goepfert

Contact : metmap@orbifly.com




SOURCES & CREDITS :

   NOAA